Time;durP1;ratioP1;P1;durP2;ratioP2;P2;SDS_P1;SDS_P2;PMS_P1;PMS_P2;Temp;Humidity;BMP_temperature;BMP_pressure;BME280_temperature;BME280_humidity;BME280_pressure;Samples;Min_cycle;Max_cycle;Signal;HPM_P1;HPM_P2
2023/06/30 00:00:12;;;;;;;10.52;6.82;;;;;;;;;;5015902;28;20022;-66
2023/06/30 00:02:39;;;;;;;9.82;7.03;;;;;;;;;;5018186;28;20030;-66
2023/06/30 00:05:05;;;;;;;12.40;7.22;;;;;;;;;;5017437;28;20029;-66
2023/06/30 00:07:30;;;;;;;9.32;6.32;;;;;;;;;;5009905;28;20100;-66
2023/06/30 00:09:55;;;;;;;8.77;6.70;;;;;;;;;;5015843;28;20032;-67
2023/06/30 00:12:21;;;;;;;8.70;5.90;;;;;;;;;;5019875;28;20030;-67
2023/06/30 00:14:46;;;;;;;7.85;5.90;;;;;;;;;;5019394;28;20337;-66
2023/06/30 00:17:12;;;;;;;8.82;6.10;;;;;;;;;;5018141;28;20474;-66
2023/06/30 00:19:37;;;;;;;11.70;6.60;;;;;;;;;;5021448;28;20025;-67
2023/06/30 00:22:02;;;;;;;10.75;7.45;;;;;;;;;;5018604;28;20629;-66
2023/06/30 00:24:28;;;;;;;9.90;6.43;;;;;;;;;;5014293;28;20038;-66
2023/06/30 00:26:54;;;;;;;8.27;6.05;;;;;;;;;;5018104;28;20481;-67
2023/06/30 00:29:19;;;;;;;10.07;7.30;;;;;;;;;;5000203;28;20038;-66
2023/06/30 00:31:45;;;;;;;9.30;6.30;;;;;;;;;;5055350;23;20041;-65
2023/06/30 00:34:10;;;;;;;9.93;7.00;;;;;;;;;;5060165;28;20032;-65
2023/06/30 00:36:35;;;;;;;9.13;6.45;;;;;;;;;;5058644;28;20029;-65
2023/06/30 00:39:01;;;;;;;8.48;6.30;;;;;;;;;;5058531;28;20082;-65
2023/06/30 00:41:26;;;;;;;9.82;6.53;;;;;;;;;;5055490;28;20416;-65
2023/06/30 00:43:52;;;;;;;14.57;7.32;;;;;;;;;;5051573;28;20033;-65
2023/06/30 00:46:18;;;;;;;12.93;6.57;;;;;;;;;;5058475;28;20079;-65
2023/06/30 00:48:44;;;;;;;10.93;7.07;;;;;;;;;;5062871;28;20020;-65
2023/06/30 00:51:11;;;;;;;9.90;6.20;;;;;;;;;;5061454;28;20546;-65
2023/06/30 00:53:37;;;;;;;9.68;6.72;;;;;;;;;;5060102;28;20131;-65
2023/06/30 00:56:03;;;;;;;9.25;6.40;;;;;;;;;;5053778;28;20593;-64
2023/06/30 00:58:28;;;;;;;8.57;6.05;;;;;;;;;;5059670;28;20055;-65
2023/06/30 01:01:06;;;;;;;8.30;6.03;;;;;;;;;;5057173;28;20476;-65
2023/06/30 01:03:46;;;;;;;8.68;6.15;;;;;;;;;;5060715;28;20028;-65
2023/06/30 01:06:21;;;;;;;10.20;6.30;;;;;;;;;;5058696;28;20013;-65
2023/06/30 01:09:03;;;;;;;13.35;7.70;;;;;;;;;;5055826;28;20147;-65
2023/06/30 01:11:30;;;;;;;10.07;6.68;;;;;;;;;;5069854;28;20619;-65
2023/06/30 01:13:58;;;;;;;8.30;5.63;;;;;;;;;;5067566;28;20048;-65
2023/06/30 01:16:24;;;;;;;9.07;6.95;;;;;;;;;;5060485;28;20036;-65
2023/06/30 01:18:52;;;;;;;8.63;6.85;;;;;;;;;;5043335;28;20048;-66
2023/06/30 01:21:19;;;;;;;8.38;6.00;;;;;;;;;;5038546;28;20025;-65
2023/06/30 01:23:58;;;;;;;9.93;6.13;;;;;;;;;;5065812;28;20132;-65
2023/06/30 01:26:24;;;;;;;9.35;6.93;;;;;;;;;;5057046;28;20021;-65
2023/06/30 01:28:53;;;;;;;9.32;6.55;;;;;;;;;;5055939;28;20044;-65
2023/06/30 01:31:19;;;;;;;10.57;7.30;;;;;;;;;;5059977;28;20036;-65
2023/06/30 01:33:45;;;;;;;8.55;6.55;;;;;;;;;;5048945;28;20719;-65
2023/06/30 01:36:10;;;;;;;10.02;6.55;;;;;;;;;;5063250;28;20044;-65
2023/06/30 01:38:35;;;;;;;11.13;7.20;;;;;;;;;;5053213;28;20021;-65
2023/06/30 01:41:02;;;;;;;11.82;7.55;;;;;;;;;;5064348;28;20472;-65
2023/06/30 01:43:29;;;;;;;11.60;6.63;;;;;;;;;;5057066;28;20032;-65
2023/06/30 01:45:55;;;;;;;8.73;6.45;;;;;;;;;;5059329;28;20033;-66
2023/06/30 01:48:21;;;;;;;10.80;7.13;;;;;;;;;;5059810;28;20020;-65
2023/06/30 01:50:47;;;;;;;8.52;6.57;;;;;;;;;;5063669;28;20017;-65
2023/06/30 01:53:13;;;;;;;9.75;7.30;;;;;;;;;;5054049;28;20018;-65
2023/06/30 01:55:44;;;;;;;10.02;6.47;;;;;;;;;;5070617;28;20028;-65
2023/06/30 01:58:10;;;;;;;9.35;6.95;;;;;;;;;;5057423;28;20399;-65
2023/06/30 02:00:35;;;;;;;9.70;7.05;;;;;;;;;;5059057;28;20017;-65
2023/06/30 02:03:00;;;;;;;10.32;7.53;;;;;;;;;;5057875;28;20438;-65
2023/06/30 02:05:26;;;;;;;10.52;7.88;;;;;;;;;;5060995;28;20044;-65
2023/06/30 02:07:51;;;;;;;10.18;7.45;;;;;;;;;;5058651;28;20019;-65
2023/06/30 02:10:16;;;;;;;11.40;7.57;;;;;;;;;;5058432;28;20020;-65
2023/06/30 02:12:42;;;;;;;12.45;8.00;;;;;;;;;;5038815;28;20024;-64
2023/06/30 02:15:08;;;;;;;11.65;7.68;;;;;;;;;;5058648;28;20032;-65
2023/06/30 02:17:35;;;;;;;10.43;7.57;;;;;;;;;;5064750;28;20028;-65
2023/06/30 02:20:03;;;;;;;12.57;8.30;;;;;;;;;;5068246;28;20501;-65
2023/06/30 02:22:29;;;;;;;12.57;8.27;;;;;;;;;;5055755;28;20028;-65
2023/06/30 02:24:56;;;;;;;12.48;8.32;;;;;;;;;;5060134;28;20035;-65
2023/06/30 02:27:21;;;;;;;11.95;8.35;;;;;;;;;;5060366;28;20029;-66
2023/06/30 02:29:47;;;;;;;12.00;8.65;;;;;;;;;;5055667;28;20115;-65
2023/06/30 02:32:12;;;;;;;10.57;7.70;;;;;;;;;;5056091;28;20020;-65
2023/06/30 02:34:37;;;;;;;12.15;8.98;;;;;;;;;;5058810;28;20021;-66
2023/06/30 02:37:03;;;;;;;12.32;9.05;;;;;;;;;;5059419;28;20434;-65
2023/06/30 02:39:28;;;;;;;12.65;8.38;;;;;;;;;;5062361;28;20024;-65
2023/06/30 02:41:54;;;;;;;11.73;8.27;;;;;;;;;;5058663;28;20111;-65
2023/06/30 02:44:19;;;;;;;12.98;8.23;;;;;;;;;;5051153;28;20432;-64
2023/06/30 02:46:45;;;;;;;13.82;8.95;;;;;;;;;;5060089;28;20052;-64
2023/06/30 02:49:10;;;;;;;13.80;9.00;;;;;;;;;;5061114;28;20020;-65
2023/06/30 02:51:36;;;;;;;13.80;10.60;;;;;;;;;;5062507;28;20380;-65
2023/06/30 02:54:01;;;;;;;16.63;9.55;;;;;;;;;;5056040;28;20525;-65
2023/06/30 02:56:26;;;;;;;14.70;10.25;;;;;;;;;;5054612;28;20021;-64
2023/06/30 02:58:52;;;;;;;16.00;9.75;;;;;;;;;;5049884;28;20040;-65
2023/06/30 03:01:20;;;;;;;14.20;9.27;;;;;;;;;;5059160;28;20099;-65
2023/06/30 03:03:46;;;;;;;18.80;9.82;;;;;;;;;;5058253;28;20174;-65
2023/06/30 03:06:12;;;;;;;12.90;8.60;;;;;;;;;;5041990;28;20103;-65
2023/06/30 03:08:37;;;;;;;12.43;8.68;;;;;;;;;;5052701;28;20021;-65
2023/06/30 03:11:03;;;;;;;11.50;9.13;;;;;;;;;;5058670;28;20759;-65
2023/06/30 03:13:28;;;;;;;14.73;9.23;;;;;;;;;;5069527;28;20024;-64
2023/06/30 03:15:53;;;;;;;13.32;9.27;;;;;;;;;;5063447;28;20488;-64
2023/06/30 03:18:19;;;;;;;14.30;9.40;;;;;;;;;;5064733;28;20033;-64
2023/06/30 03:20:44;;;;;;;13.63;9.15;;;;;;;;;;5058739;28;20020;-64
2023/06/30 03:23:13;;;;;;;15.90;10.93;;;;;;;;;;5064805;28;20608;-65
2023/06/30 03:25:38;;;;;;;13.25;9.15;;;;;;;;;;5060923;28;20113;-65
2023/06/30 03:28:04;;;;;;;14.38;10.10;;;;;;;;;;5063090;28;20081;-64
2023/06/30 03:30:29;;;;;;;13.25;9.00;;;;;;;;;;5061575;28;20385;-64
2023/06/30 03:32:55;;;;;;;16.42;11.02;;;;;;;;;;5070703;28;20031;-65
2023/06/30 03:35:20;;;;;;;14.60;11.30;;;;;;;;;;5055814;28;20119;-65
2023/06/30 03:37:45;;;;;;;13.45;9.98;;;;;;;;;;5057886;28;20107;-65
2023/06/30 03:40:12;;;;;;;14.27;9.88;;;;;;;;;;5062927;28;20024;-65
2023/06/30 03:42:37;;;;;;;13.73;9.27;;;;;;;;;;5062043;28;20028;-64
2023/06/30 03:45:03;;;;;;;15.02;10.35;;;;;;;;;;5057329;28;20033;-65
2023/06/30 03:47:28;;;;;;;14.65;9.88;;;;;;;;;;5053494;28;20075;-65
2023/06/30 03:49:53;;;;;;;17.02;12.15;;;;;;;;;;5057970;28;20036;-65
2023/06/30 03:52:19;;;;;;;14.63;10.27;;;;;;;;;;5064675;28;20655;-64
2023/06/30 03:54:44;;;;;;;19.88;12.85;;;;;;;;;;5058861;28;20305;-64
2023/06/30 03:57:09;;;;;;;18.60;11.77;;;;;;;;;;5054227;28;20082;-65
2023/06/30 03:59:35;;;;;;;19.70;12.20;;;;;;;;;;5057946;28;20639;-65
2023/06/30 04:02:00;;;;;;;18.75;12.75;;;;;;;;;;5061010;28;20017;-65
2023/06/30 04:04:26;;;;;;;20.23;13.15;;;;;;;;;;5058400;28;20024;-64
2023/06/30 04:06:51;;;;;;;19.95;13.50;;;;;;;;;;5053550;28;20113;-64
2023/06/30 04:09:16;;;;;;;21.45;12.20;;;;;;;;;;5062014;28;20438;-64
2023/06/30 04:11:42;;;;;;;18.88;13.13;;;;;;;;;;5055012;28;20028;-64
2023/06/30 04:14:07;;;;;;;19.52;13.23;;;;;;;;;;5059695;28;20079;-65
2023/06/30 04:16:32;;;;;;;17.33;11.98;;;;;;;;;;5056893;28;20394;-64
2023/06/30 04:18:58;;;;;;;19.08;13.48;;;;;;;;;;5057237;28;20045;-65
2023/06/30 04:21:23;;;;;;;15.50;11.27;;;;;;;;;;5055603;28;20024;-64
2023/06/30 04:23:49;;;;;;;17.55;12.40;;;;;;;;;;5062747;28;20039;-65
2023/06/30 04:26:17;;;;;;;20.35;13.52;;;;;;;;;;5056011;28;20021;-65
2023/06/30 04:28:46;;;;;;;20.98;12.68;;;;;;;;;;5056257;28;20060;-64
2023/06/30 04:31:11;;;;;;;20.92;14.27;;;;;;;;;;5053963;28;20021;-64
2023/06/30 04:33:36;;;;;;;20.80;13.43;;;;;;;;;;5054696;28;20020;-64
2023/06/30 04:36:03;;;;;;;20.90;13.82;;;;;;;;;;5066599;28;20078;-64
2023/06/30 04:38:28;;;;;;;21.63;13.23;;;;;;;;;;5056640;28;20531;-65
2023/06/30 04:40:54;;;;;;;19.58;13.90;;;;;;;;;;5068242;28;20029;-65
2023/06/30 04:43:20;;;;;;;19.70;13.60;;;;;;;;;;5054183;28;20476;-64
2023/06/30 04:45:45;;;;;;;20.10;14.18;;;;;;;;;;5059735;28;20649;-65
2023/06/30 04:48:10;;;;;;;20.77;15.00;;;;;;;;;;5057891;28;20044;-65
2023/06/30 04:50:36;;;;;;;21.08;14.43;;;;;;;;;;5054886;28;20013;-64
2023/06/30 04:53:01;;;;;;;18.98;13.43;;;;;;;;;;5058271;28;20036;-65
2023/06/30 04:55:27;;;;;;;19.20;13.50;;;;;;;;;;5055729;28;20039;-65
2023/06/30 04:57:56;;;;;;;21.55;14.57;;;;;;;;;;5052291;28;20039;-65
2023/06/30 05:00:22;;;;;;;20.85;14.18;;;;;;;;;;5051254;28;20021;-64
2023/06/30 05:02:48;;;;;;;21.13;14.93;;;;;;;;;;5054464;28;20469;-64
2023/06/30 05:05:14;;;;;;;21.67;14.55;;;;;;;;;;5057168;28;20090;-65
2023/06/30 05:07:39;;;;;;;21.10;14.35;;;;;;;;;;5056140;28;20408;-64
2023/06/30 05:10:05;;;;;;;19.98;13.82;;;;;;;;;;5053865;28;20019;-65
2023/06/30 05:12:30;;;;;;;19.85;13.80;;;;;;;;;;5051412;28;20063;-64
2023/06/30 05:14:56;;;;;;;18.25;13.50;;;;;;;;;;5055077;28;20083;-64
2023/06/30 05:17:21;;;;;;;20.67;13.48;;;;;;;;;;5049623;28;20037;-65
2023/06/30 05:19:47;;;;;;;20.58;13.45;;;;;;;;;;5051711;28;20029;-65
2023/06/30 05:22:12;;;;;;;22.88;13.77;;;;;;;;;;5052784;28;20108;-64
2023/06/30 05:24:38;;;;;;;21.15;13.88;;;;;;;;;;5052934;28;20099;-64
2023/06/30 05:27:03;;;;;;;18.35;13.40;;;;;;;;;;5052530;28;20702;-64
2023/06/30 05:29:31;;;;;;;18.75;13.68;;;;;;;;;;5053829;28;20032;-65
2023/06/30 05:31:56;;;;;;;18.48;12.35;;;;;;;;;;5052993;28;20048;-65
2023/06/30 05:34:22;;;;;;;20.23;13.38;;;;;;;;;;5051946;28;20363;-65
2023/06/30 05:36:47;;;;;;;20.10;13.27;;;;;;;;;;5053908;28;20023;-65
2023/06/30 05:39:14;;;;;;;20.27;14.00;;;;;;;;;;5057348;28;20108;-64
2023/06/30 05:41:39;;;;;;;20.10;13.88;;;;;;;;;;5062570;28;20023;-64
2023/06/30 05:44:06;;;;;;;21.83;13.88;;;;;;;;;;5050654;28;20396;-63
2023/06/30 05:46:33;;;;;;;24.38;16.73;;;;;;;;;;5057528;28;20048;-64
2023/06/30 05:49:02;;;;;;;20.75;13.85;;;;;;;;;;5059291;28;20025;-64
2023/06/30 05:51:27;;;;;;;22.98;15.55;;;;;;;;;;5060284;28;20017;-64
2023/06/30 05:53:53;;;;;;;20.17;14.75;;;;;;;;;;5056426;28;20021;-64
2023/06/30 05:56:18;;;;;;;20.95;15.32;;;;;;;;;;5055863;28;20020;-64
2023/06/30 05:58:43;;;;;;;20.63;14.30;;;;;;;;;;5056737;28;20506;-63
2023/06/30 06:01:09;;;;;;;20.00;14.43;;;;;;;;;;5066878;28;20107;-64
2023/06/30 06:03:35;;;;;;;20.70;15.25;;;;;;;;;;5063269;28;20487;-64
2023/06/30 06:06:00;;;;;;;21.42;15.32;;;;;;;;;;5060927;28;20028;-63
2023/06/30 06:08:26;;;;;;;21.95;15.00;;;;;;;;;;5058558;28;20097;-64
2023/06/30 06:10:51;;;;;;;22.95;14.65;;;;;;;;;;5058473;28;20422;-64
2023/06/30 06:13:36;;;;;;;25.20;15.52;;;;;;;;;;5059664;28;20012;-64
2023/06/30 06:16:02;;;;;;;22.50;15.30;;;;;;;;;;5063459;28;20396;-66
2023/06/30 06:18:28;;;;;;;19.27;14.43;;;;;;;;;;5052446;28;20027;-66
2023/06/30 06:20:54;;;;;;;21.75;15.75;;;;;;;;;;5057661;28;20392;-66
2023/06/30 06:23:20;;;;;;;22.10;14.55;;;;;;;;;;5052756;28;20040;-65
2023/06/30 06:25:46;;;;;;;20.75;15.60;;;;;;;;;;5053734;28;20039;-65
2023/06/30 06:28:11;;;;;;;21.30;15.93;;;;;;;;;;5061092;28;20013;-66
2023/06/30 06:30:36;;;;;;;22.08;14.95;;;;;;;;;;5061838;28;20115;-65
2023/06/30 06:33:02;;;;;;;22.23;14.75;;;;;;;;;;5050076;22;20226;-67
2023/06/30 06:35:27;;;;;;;22.92;15.70;;;;;;;;;;5036208;28;20032;-69
2023/06/30 06:37:52;;;;;;;23.13;15.77;;;;;;;;;;5028539;28;20091;-67
2023/06/30 06:40:18;;;;;;;21.38;14.30;;;;;;;;;;5037729;28;20013;-67
2023/06/30 06:42:43;;;;;;;22.25;14.43;;;;;;;;;;5033479;28;20033;-69
2023/06/30 06:45:09;;;;;;;20.60;14.18;;;;;;;;;;5032297;28;20081;-70
2023/06/30 06:48:12;;;;;;;20.50;13.73;;;;;;;;;;5032368;28;20032;-67
2023/06/30 06:50:37;;;;;;;21.75;13.90;;;;;;;;;;5032108;28;20056;-67
2023/06/30 06:53:02;;;;;;;21.85;14.27;;;;;;;;;;5035121;28;20896;-67
2023/06/30 06:55:28;;;;;;;20.25;14.55;;;;;;;;;;5036409;28;20079;-65
2023/06/30 06:57:53;;;;;;;18.45;13.35;;;;;;;;;;5037386;28;20021;-67
2023/06/30 07:00:19;;;;;;;20.85;13.95;;;;;;;;;;5037966;28;20119;-68
2023/06/30 07:02:44;;;;;;;19.38;13.65;;;;;;;;;;5033115;28;20041;-67
2023/06/30 07:05:10;;;;;;;21.88;14.50;;;;;;;;;;5033504;28;20104;-67
2023/06/30 07:07:36;;;;;;;22.92;15.55;;;;;;;;;;5040778;28;20033;-66
2023/06/30 07:10:01;;;;;;;19.05;12.43;;;;;;;;;;5034967;28;20032;-66
2023/06/30 07:12:27;;;;;;;20.90;13.77;;;;;;;;;;5037398;28;20104;-67
2023/06/30 07:14:52;;;;;;;13.40;8.25;;;;;;;;;;5035100;28;20091;-68
2023/06/30 07:17:18;;;;;;;22.15;15.38;;;;;;;;;;5038540;28;20116;-66
2023/06/30 07:19:43;;;;;;;23.80;15.65;;;;;;;;;;5022094;28;20377;-67
2023/06/30 07:22:08;;;;;;;20.48;14.40;;;;;;;;;;5038404;28;20024;-67
2023/06/30 07:24:34;;;;;;;22.90;15.68;;;;;;;;;;5021713;28;20048;-66
2023/06/30 07:26:59;;;;;;;21.73;14.02;;;;;;;;;;5034350;28;20418;-67
2023/06/30 07:29:25;;;;;;;21.67;14.30;;;;;;;;;;5036951;28;20032;-66
2023/06/30 07:31:50;;;;;;;22.75;15.10;;;;;;;;;;5040952;28;20024;-65
2023/06/30 07:34:19;;;;;;;22.42;14.68;;;;;;;;;;5037920;28;20481;-67
2023/06/30 07:36:45;;;;;;;23.48;14.20;;;;;;;;;;5036564;28;20355;-68
2023/06/30 07:39:11;;;;;;;21.67;14.05;;;;;;;;;;5038179;28;20040;-67
2023/06/30 07:41:36;;;;;;;23.80;14.45;;;;;;;;;;5035246;28;20025;-66
2023/06/30 07:44:02;;;;;;;20.90;13.48;;;;;;;;;;5021269;28;20413;-67
2023/06/30 07:46:27;;;;;;;23.40;13.82;;;;;;;;;;5027149;28;20036;-66
2023/06/30 07:48:53;;;;;;;21.08;13.43;;;;;;;;;;5028660;28;20049;-66
2023/06/30 07:51:18;;;;;;;22.27;14.88;;;;;;;;;;5034466;28;20135;-66
2023/06/30 07:53:44;;;;;;;22.25;14.55;;;;;;;;;;5036227;28;20029;-68
2023/06/30 07:56:10;;;;;;;21.95;13.68;;;;;;;;;;5039580;28;20024;-67
2023/06/30 07:58:35;;;;;;;20.70;14.85;;;;;;;;;;5035291;28;20024;-68
2023/06/30 08:01:01;;;;;;;24.27;15.15;;;;;;;;;;5030082;28;20131;-68
2023/06/30 08:03:26;;;;;;;24.25;15.88;;;;;;;;;;5037003;28;20029;-68
2023/06/30 08:05:52;;;;;;;23.90;14.57;;;;;;;;;;5033494;28;20657;-68
2023/06/30 08:08:17;;;;;;;23.95;15.23;;;;;;;;;;5033377;28;20033;-66
2023/06/30 08:10:46;;;;;;;23.77;15.93;;;;;;;;;;5032703;28;20044;-66
2023/06/30 08:13:11;;;;;;;23.35;15.73;;;;;;;;;;5033912;28;20017;-67
2023/06/30 08:15:37;;;;;;;21.17;14.63;;;;;;;;;;5037732;28;20108;-67
2023/06/30 08:18:02;;;;;;;22.20;14.75;;;;;;;;;;5015879;28;20052;-66
2023/06/30 08:20:27;;;;;;;23.10;15.55;;;;;;;;;;5034166;28;20029;-66
2023/06/30 08:22:54;;;;;;;22.20;14.50;;;;;;;;;;5037696;28;20438;-66
2023/06/30 08:25:23;;;;;;;16.63;11.30;;;;;;;;;;5033641;28;20037;-66
2023/06/30 08:27:48;;;;;;;19.30;14.05;;;;;;;;;;5032725;28;20013;-66
2023/06/30 08:30:15;;;;;;;22.27;14.98;;;;;;;;;;5030500;28;20025;-66
2023/06/30 08:32:40;;;;;;;18.70;13.00;;;;;;;;;;5034093;28;20029;-66
2023/06/30 08:35:05;;;;;;;18.52;11.60;;;;;;;;;;5032339;28;20709;-66
2023/06/30 08:37:31;;;;;;;11.80;8.02;;;;;;;;;;5031986;28;20432;-66
2023/06/30 08:39:56;;;;;;;13.32;8.48;;;;;;;;;;5029686;28;20039;-66
2023/06/30 08:42:26;;;;;;;14.10;9.25;;;;;;;;;;5035948;28;20528;-65
2023/06/30 08:44:53;;;;;;;12.18;8.25;;;;;;;;;;5028873;28;20025;-66
2023/06/30 08:47:23;;;;;;;9.80;7.18;;;;;;;;;;5032593;28;20025;-65
2023/06/30 08:49:48;;;;;;;10.80;6.40;;;;;;;;;;5039629;28;20040;-66
2023/06/30 08:52:15;;;;;;;8.13;4.57;;;;;;;;;;5030529;28;20021;-65
2023/06/30 08:54:41;;;;;;;5.18;3.63;;;;;;;;;;5031304;28;20460;-65
2023/06/30 08:57:06;;;;;;;6.15;3.58;;;;;;;;;;5033954;28;20034;-65
2023/06/30 08:59:32;;;;;;;5.28;2.70;;;;;;;;;;5041450;28;20434;-66
2023/06/30 09:01:58;;;;;;;4.18;2.40;;;;;;;;;;5039410;28;20161;-65
2023/06/30 09:04:24;;;;;;;4.25;2.38;;;;;;;;;;5036366;28;20479;-65
2023/06/30 09:06:50;;;;;;;5.53;2.72;;;;;;;;;;5038803;28;20487;-65
2023/06/30 09:09:27;;;;;;;4.30;2.50;;;;;;;;;;5032994;28;20044;-65
2023/06/30 09:11:53;;;;;;;4.22;2.15;;;;;;;;;;5036479;28;20081;-65
2023/06/30 09:14:20;;;;;;;5.55;2.80;;;;;;;;;;5038434;28;20021;-65
2023/06/30 09:16:46;;;;;;;4.30;2.00;;;;;;;;;;5036057;28;20186;-65
2023/06/30 09:19:13;;;;;;;3.90;1.95;;;;;;;;;;5039088;28;20545;-65
2023/06/30 09:21:39;;;;;;;3.45;1.83;;;;;;;;;;5019929;28;20025;-65
2023/06/30 09:24:05;;;;;;;3.88;1.70;;;;;;;;;;5037935;28;20040;-65
2023/06/30 09:26:34;;;;;;;3.45;1.88;;;;;;;;;;5037784;28;20024;-65
2023/06/30 09:29:00;;;;;;;3.78;1.92;;;;;;;;;;5035990;28;20025;-65
2023/06/30 09:31:30;;;;;;;2.47;1.27;;;;;;;;;;5038772;28;20025;-65
2023/06/30 09:34:14;;;;;;;3.28;1.35;;;;;;;;;;5022545;28;20112;-65
2023/06/30 09:36:50;;;;;;;2.83;1.10;;;;;;;;;;5040509;28;20060;-65
2023/06/30 09:39:16;;;;;;;2.28;1.30;;;;;;;;;;5037456;28;20036;-65
2023/06/30 09:41:43;;;;;;;3.20;1.27;;;;;;;;;;5038757;28;20409;-65
2023/06/30 09:44:10;;;;;;;1.83;1.00;;;;;;;;;;5032695;28;20053;-65
2023/06/30 09:46:35;;;;;;;2.92;1.27;;;;;;;;;;5033920;28;20147;-65
2023/06/30 09:49:04;;;;;;;1.77;1.10;;;;;;;;;;5037005;28;20105;-65
2023/06/30 09:51:33;;;;;;;2.45;0.98;;;;;;;;;;5035868;28;20100;-64
2023/06/30 09:53:58;;;;;;;3.05;1.00;;;;;;;;;;5038815;28;20438;-64
2023/06/30 09:56:24;;;;;;;1.98;1.00;;;;;;;;;;5035875;28;20115;-66
2023/06/30 09:58:59;;;;;;;1.27;0.90;;;;;;;;;;5034719;28;20021;-64
2023/06/30 10:01:24;;;;;;;2.08;1.10;;;;;;;;;;5037777;28;20107;-65
2023/06/30 10:03:52;;;;;;;1.75;1.10;;;;;;;;;;5038013;28;20412;-66
2023/06/30 10:06:23;;;;;;;2.90;1.48;;;;;;;;;;5040335;28;20045;-66
2023/06/30 10:08:51;;;;;;;3.60;1.33;;;;;;;;;;5039632;28;20079;-67
2023/06/30 10:11:19;;;;;;;2.67;1.77;;;;;;;;;;5038027;28;20034;-66
2023/06/30 10:13:45;;;;;;;3.03;2.17;;;;;;;;;;5035978;28;20017;-65
2023/06/30 10:16:12;;;;;;;5.70;1.98;;;;;;;;;;5037201;28;20044;-66
2023/06/30 10:18:43;;;;;;;2.75;1.85;;;;;;;;;;5034008;28;20072;-68
2023/06/30 10:21:08;;;;;;;;;;;;;;;;;;5040010;28;20028;-67
2023/06/30 10:23:35;;;;;;;3.53;2.92;;;;;;;;;;5035588;28;19913;-68
2023/06/30 10:26:05;;;;;;;4.18;3.20;;;;;;;;;;5039568;28;20412;-67
2023/06/30 10:28:33;;;;;;;4.53;3.30;;;;;;;;;;5037223;28;20047;-67
2023/06/30 10:30:59;;;;;;;3.28;2.85;;;;;;;;;;5034994;28;20337;-68
2023/06/30 10:33:25;;;;;;;7.38;3.95;;;;;;;;;;5034891;28;20025;-68
2023/06/30 10:35:51;;;;;;;5.13;3.42;;;;;;;;;;5039909;28;20380;-68
2023/06/30 10:38:16;;;;;;;4.60;3.45;;;;;;;;;;5030101;28;20271;-67
2023/06/30 10:40:42;;;;;;;4.72;4.32;;;;;;;;;;5034373;28;20512;-67
2023/06/30 10:43:07;;;;;;;4.63;4.10;;;;;;;;;;5038179;28;20044;-66
2023/06/30 10:46:07;;;;;;;4.65;4.00;;;;;;;;;;5039721;28;20029;-67
2023/06/30 10:48:33;;;;;;;4.90;4.10;;;;;;;;;;5039853;28;20049;-66
2023/06/30 10:50:58;;;;;;;5.43;4.03;;;;;;;;;;5033429;28;20052;-66
2023/06/30 10:53:26;;;;;;;5.68;4.78;;;;;;;;;;5017943;28;20033;-67
2023/06/30 10:55:56;;;;;;;6.20;4.53;;;;;;;;;;5035698;28;20017;-66
2023/06/30 10:58:25;;;;;;;5.85;5.13;;;;;;;;;;5036856;28;20100;-66
2023/06/30 11:01:04;;;;;;;5.43;4.93;;;;;;;;;;5031139;28;20033;-66
2023/06/30 11:03:57;;;;;;;7.20;4.50;;;;;;;;;;5038203;28;20095;-66
2023/06/30 11:06:24;;;;;;;6.10;5.47;;;;;;;;;;5033986;28;20024;-66
2023/06/30 11:09:00;;;;;;;7.45;5.60;;;;;;;;;;5021607;28;20020;-66
2023/06/30 11:11:27;;;;;;;8.32;7.15;;;;;;;;;;5036917;28;20026;-66
2023/06/30 11:14:04;;;;;;;9.30;8.15;;;;;;;;;;5037950;28;20025;-66
2023/06/30 11:16:30;;;;;;;9.73;8.63;;;;;;;;;;5035133;28;20025;-66
2023/06/30 11:19:02;;;;;;;9.20;8.30;;;;;;;;;;5033671;28;20402;-66
2023/06/30 11:21:30;;;;;;;9.43;8.45;;;;;;;;;;5037848;28;20032;-65
2023/06/30 11:23:57;;;;;;;9.20;8.20;;;;;;;;;;5034740;28;20025;-66
2023/06/30 11:26:22;;;;;;;8.40;7.45;;;;;;;;;;5035834;28;20114;-66
2023/06/30 11:28:48;;;;;;;8.10;7.32;;;;;;;;;;5033603;28;20493;-66
2023/06/30 11:31:14;;;;;;;9.13;7.15;;;;;;;;;;5018443;28;20029;-66
2023/06/30 11:33:41;;;;;;;8.07;7.28;;;;;;;;;;5019379;28;20374;-66
2023/06/30 11:36:17;;;;;;;7.57;6.63;;;;;;;;;;5035699;28;20021;-66
2023/06/30 11:38:46;;;;;;;8.02;7.03;;;;;;;;;;5037810;28;20029;-66
2023/06/30 11:41:11;;;;;;;8.48;7.60;;;;;;;;;;5032856;28;20483;-66
2023/06/30 11:43:39;;;;;;;9.45;6.82;;;;;;;;;;5020744;28;20040;-65
2023/06/30 11:46:05;;;;;;;7.47;6.78;;;;;;;;;;5033347;28;20362;-66
2023/06/30 11:48:37;;;;;;;6.72;5.97;;;;;;;;;;5031156;28;20056;-66
2023/06/30 11:51:02;;;;;;;7.03;6.30;;;;;;;;;;5032421;28;20013;-65
2023/06/30 11:53:29;;;;;;;7.57;6.18;;;;;;;;;;5034134;28;20031;-66
2023/06/30 11:55:57;;;;;;;6.72;6.05;;;;;;;;;;5037615;28;20032;-66
2023/06/30 11:58:22;;;;;;;7.18;6.13;;;;;;;;;;5036795;28;20028;-65
2023/06/30 12:00:48;;;;;;;7.32;6.00;;;;;;;;;;5036991;28;20020;-65
2023/06/30 12:03:17;;;;;;;6.47;5.88;;;;;;;;;;5013984;28;20136;-66
2023/06/30 12:05:43;;;;;;;7.35;6.45;;;;;;;;;;5035547;28;20033;-66
2023/06/30 12:08:08;;;;;;;7.00;5.72;;;;;;;;;;5012842;28;20024;-65
2023/06/30 12:10:38;;;;;;;7.47;6.03;;;;;;;;;;5034306;28;20048;-66
2023/06/30 12:13:07;;;;;;;6.63;5.57;;;;;;;;;;5034666;28;20783;-66
2023/06/30 12:15:33;;;;;;;6.80;5.20;;;;;;;;;;5035126;28;20037;-65
2023/06/30 12:17:58;;;;;;;6.28;5.68;;;;;;;;;;5036095;28;20037;-65
2023/06/30 12:20:35;;;;;;;7.05;5.40;;;;;;;;;;5035072;28;20532;-66
2023/06/30 12:23:01;;;;;;;5.80;4.82;;;;;;;;;;5035287;28;20087;-66
2023/06/30 12:25:34;;;;;;;5.22;4.70;;;;;;;;;;5036405;28;20134;-66
2023/06/30 12:28:06;;;;;;;6.97;5.95;;;;;;;;;;5033778;28;20095;-65
2023/06/30 12:30:31;;;;;;;6.82;5.50;;;;;;;;;;5034314;28;20033;-65
2023/06/30 12:32:58;;;;;;;7.90;7.20;;;;;;;;;;5032594;28;20032;-65
2023/06/30 12:35:39;;;;;;;7.40;6.22;;;;;;;;;;5034966;28;20032;-65
2023/06/30 12:38:07;;;;;;;8.40;6.57;;;;;;;;;;5034839;28;20037;-66
2023/06/30 12:40:32;;;;;;;7.90;7.00;;;;;;;;;;5032432;28;20044;-67
2023/06/30 12:42:58;;;;;;;8.43;6.88;;;;;;;;;;5012238;28;20030;-67
2023/06/30 12:45:23;;;;;;;7.70;6.85;;;;;;;;;;5030608;28;20044;-67
2023/06/30 12:47:49;;;;;;;9.45;7.03;;;;;;;;;;5038465;28;20381;-66
2023/06/30 12:50:14;;;;;;;8.52;7.10;;;;;;;;;;5030520;28;20021;-67
2023/06/30 12:52:40;;;;;;;7.90;7.10;;;;;;;;;;5039300;28;20082;-67
2023/06/30 12:55:06;;;;;;;8.57;7.05;;;;;;;;;;5039268;28;20028;-67
2023/06/30 12:57:32;;;;;;;8.00;7.20;;;;;;;;;;5035514;28;20025;-67
2023/06/30 12:59:57;;;;;;;7.70;6.75;;;;;;;;;;5039146;28;20040;-66
2023/06/30 13:02:22;;;;;;;7.80;6.95;;;;;;;;;;5037743;28;20393;-66
2023/06/30 13:04:48;;;;;;;10.75;7.80;;;;;;;;;;5040549;28;20017;-66
2023/06/30 13:07:13;;;;;;;7.80;6.65;;;;;;;;;;5015628;28;20490;-66
2023/06/30 13:09:38;;;;;;;10.07;8.05;;;;;;;;;;5039169;28;20024;-67
2023/06/30 13:12:07;;;;;;;8.93;7.32;;;;;;;;;;5039131;28;20495;-67
2023/06/30 13:14:33;;;;;;;8.45;7.10;;;;;;;;;;5034044;28;20021;-67
2023/06/30 13:19:26;;;;;;;9.25;7.47;;;;;;;;;;5036366;28;20155;-65
2023/06/30 13:21:51;;;;;;;11.65;8.15;;;;;;;;;;5038905;28;20405;-64
2023/06/30 13:24:17;;;;;;;8.05;7.22;;;;;;;;;;5034515;28;20030;-65
2023/06/30 13:26:44;;;;;;;9.05;7.55;;;;;;;;;;5040455;28;20024;-64
2023/06/30 13:29:09;;;;;;;9.30;8.02;;;;;;;;;;5035676;28;20568;-65
2023/06/30 13:31:35;;;;;;;9.52;8.23;;;;;;;;;;5050658;28;20020;-65
2023/06/30 13:34:00;;;;;;;8.68;7.63;;;;;;;;;;5060591;28;20123;-64
2023/06/30 13:36:27;;;;;;;9.82;7.50;;;;;;;;;;5059925;28;20028;-65
2023/06/30 13:38:53;;;;;;;8.32;7.50;;;;;;;;;;5051265;28;20078;-65
2023/06/30 13:41:18;;;;;;;9.32;6.85;;;;;;;;;;5045217;28;20029;-65
2023/06/30 13:43:44;;;;;;;7.93;6.70;;;;;;;;;;5055684;28;20028;-64
2023/06/30 13:46:09;;;;;;;6.45;5.25;;;;;;;;;;5053931;28;20521;-65
2023/06/30 13:48:35;;;;;;;6.35;5.35;;;;;;;;;;5055730;28;20024;-64
2023/06/30 13:51:01;;;;;;;6.25;4.60;;;;;;;;;;5058407;28;20024;-65
2023/06/30 13:53:27;;;;;;;4.60;3.63;;;;;;;;;;5055477;28;20551;-64
2023/06/30 13:55:53;;;;;;;5.43;3.25;;;;;;;;;;5059294;28;20137;-65
2023/06/30 13:58:18;;;;;;;4.72;3.47;;;;;;;;;;5056278;28;20555;-64
2023/06/30 14:00:46;;;;;;;4.07;2.90;;;;;;;;;;5058454;28;20040;-64
2023/06/30 14:03:13;;;;;;;6.97;3.90;;;;;;;;;;5057528;28;20020;-65
2023/06/30 14:05:38;;;;;;;14.77;5.25;;;;;;;;;;5050245;28;20029;-65
2023/06/30 14:08:04;;;;;;;6.72;3.47;;;;;;;;;;5055065;28;20093;-65
2023/06/30 14:10:31;;;;;;;9.38;3.97;;;;;;;;;;5056009;28;20033;-65
2023/06/30 14:12:56;;;;;;;9.85;3.17;;;;;;;;;;5042922;28;20028;-65
2023/06/30 14:15:21;;;;;;;7.28;2.83;;;;;;;;;;5057011;28;20020;-65
2023/06/30 14:17:47;;;;;;;10.00;4.35;;;;;;;;;;5052817;28;20705;-64
2023/06/30 14:20:12;;;;;;;3.40;2.90;;;;;;;;;;5052780;28;20089;-65
2023/06/30 14:22:38;;;;;;;2.63;2.08;;;;;;;;;;5054120;28;20403;-65
2023/06/30 14:25:04;;;;;;;4.03;2.30;;;;;;;;;;5056205;28;20032;-65
2023/06/30 14:27:29;;;;;;;3.38;2.33;;;;;;;;;;5052648;28;20148;-65
2023/06/30 14:29:54;;;;;;;3.83;2.42;;;;;;;;;;5054018;28;20036;-64